Time;durP1;ratioP1;P1;durP2;ratioP2;P2;SDS_P1;SDS_P2;PMS_P1;PMS_P2;Temp;Humidity;BMP_temperature;BMP_pressure;BME280_temperature;BME280_humidity;BME280_pressure;Samples;Min_cycle;Max_cycle;Signal;HPM_P1;HPM_P2
2021/10/03 00:01:14;;;;;;;14.85;5.70;;;;;;;12.31;57.71;100839.16;5038972;28;20056;-62
2021/10/03 00:03:43;;;;;;;8.88;4.78;;;;;;;12.29;57.48;100850.03;5056061;28;20407;-61
2021/10/03 00:06:08;;;;;;;10.38;5.47;;;;;;;12.27;57.75;100853.25;5056322;28;20047;-61
2021/10/03 00:08:34;;;;;;;10.32;5.03;;;;;;;12.23;57.82;100846.03;5056161;28;20025;-61
2021/10/03 00:11:00;;;;;;;14.13;5.20;;;;;;;12.18;57.89;100850.06;5055706;28;20029;-61
2021/10/03 00:13:27;;;;;;;8.00;4.95;;;;;;;12.15;57.89;100850.06;5056209;28;20293;-62
2021/10/03 00:15:54;;;;;;;11.60;5.00;;;;;;;12.12;58.41;100851.66;5055510;28;20048;-62
2021/10/03 00:18:20;;;;;;;9.00;4.63;;;;;;;12.12;58.33;100839.59;5056179;28;20051;-62
2021/10/03 00:20:46;;;;;;;9.88;4.55;;;;;;;12.10;58.69;100836.38;5055703;28;20025;-62
2021/10/03 00:23:12;;;;;;;8.80;4.85;;;;;;;12.05;58.68;100841.22;5055883;28;20033;-62
2021/10/03 00:25:38;;;;;;;6.40;4.55;;;;;;;12.02;58.64;100839.16;5055667;28;20036;-62
2021/10/03 00:28:06;;;;;;;10.07;4.90;;;;;;;11.97;59.13;100844.41;5055596;28;20040;-62
2021/10/03 00:30:32;;;;;;;8.82;5.20;;;;;;;11.89;59.06;100828.72;5038010;28;20074;-62
2021/10/03 00:32:57;;;;;;;10.63;4.45;;;;;;;11.82;59.34;100832.34;5055542;28;20025;-62
2021/10/03 00:35:23;;;;;;;12.43;4.82;;;;;;;11.80;59.30;100833.94;5056059;28;20044;-62
2021/10/03 00:37:49;;;;;;;9.32;4.60;;;;;;;11.80;59.69;100833.94;5054770;28;20033;-62
2021/10/03 00:40:14;;;;;;;9.85;5.43;;;;;;;11.79;59.90;100832.34;5055732;28;20445;-62
2021/10/03 00:42:41;;;;;;;9.82;5.35;;;;;;;11.77;59.99;100824.22;5055660;28;20056;-62
2021/10/03 00:45:10;;;;;;;11.80;4.82;;;;;;;11.74;59.69;100822.22;5055362;28;20028;-62
2021/10/03 00:47:35;;;;;;;14.65;5.65;;;;;;;11.69;59.76;100817.78;5055615;28;20071;-62
2021/10/03 00:50:01;;;;;;;13.40;5.22;;;;;;;11.66;59.92;100820.59;5055516;28;20069;-62
2021/10/03 00:52:26;;;;;;;10.95;5.18;;;;;;;11.65;60.30;100819.78;5055955;28;20025;-62
2021/10/03 00:54:52;;;;;;;11.23;5.13;;;;;;;11.65;60.36;100821.81;5055116;28;20091;-63
2021/10/03 00:57:18;;;;;;;8.70;5.15;;;;;;;11.63;60.07;100819.38;5055818;28;20361;-62
2021/10/03 00:59:43;;;;;;;12.13;5.45;;;;;;;11.60;60.41;100816.56;5055697;28;20047;-62
2021/10/03 01:02:09;;;;;;;8.32;4.95;;;;;;;11.56;60.55;100818.59;5055291;28;20427;-62
2021/10/03 01:04:34;;;;;;;9.60;5.03;;;;;;;11.50;60.71;100814.53;5054725;28;20028;-62
2021/10/03 01:06:59;;;;;;;11.70;5.20;;;;;;;11.48;60.36;100819.75;5055585;28;20029;-62
2021/10/03 01:09:25;;;;;;;9.88;5.65;;;;;;;11.46;60.75;100825.78;5054976;28;20070;-62
2021/10/03 01:11:50;;;;;;;10.52;5.43;;;;;;;11.43;60.72;100813.31;5055489;28;20024;-62
2021/10/03 01:14:17;;;;;;;12.05;5.72;;;;;;;11.39;60.79;100826.56;5055156;28;20029;-62
2021/10/03 01:16:44;;;;;;;9.57;5.35;;;;;;;11.38;60.87;100826.97;5053372;28;20052;-62
2021/10/03 01:19:09;;;;;;;8.15;5.50;;;;;;;11.35;60.66;100822.13;5055777;28;20031;-62
2021/10/03 01:21:34;;;;;;;11.68;5.93;;;;;;;11.33;60.81;100828.16;5055360;28;20366;-62
2021/10/03 01:24:00;;;;;;;9.77;6.03;;;;;;;11.31;61.13;100818.50;5055299;28;20365;-62
2021/10/03 01:26:28;;;;;;;7.50;5.68;;;;;;;11.26;61.14;100827.34;5055341;28;20025;-62
2021/10/03 01:28:55;;;;;;;13.00;5.93;;;;;;;11.20;61.46;100817.66;5055450;28;20067;-62
2021/10/03 01:31:22;;;;;;;12.02;6.10;;;;;;;11.18;61.88;100832.13;5055346;28;20336;-62
2021/10/03 01:33:47;;;;;;;16.77;6.75;;;;;;;11.14;61.46;100820.84;5055049;28;20032;-61
2021/10/03 01:36:13;;;;;;;16.17;6.85;;;;;;;11.12;61.82;100816.84;5055083;28;20100;-62
2021/10/03 01:38:39;;;;;;;12.30;6.35;;;;;;;11.07;61.86;100812.41;5054865;28;20032;-62
2021/10/03 01:41:05;;;;;;;11.15;5.65;;;;;;;11.04;61.83;100809.56;5055038;28;20482;-62
2021/10/03 01:43:31;;;;;;;13.30;6.15;;;;;;;11.02;61.70;100811.97;5055326;28;20020;-62
2021/10/03 01:45:56;;;;;;;16.48;6.88;;;;;;;10.99;62.02;100816.41;5054989;28;20076;-62
2021/10/03 01:48:23;;;;;;;15.15;6.50;;;;;;;10.95;62.08;100821.16;5054794;28;20123;-62
2021/10/03 01:50:52;;;;;;;13.20;6.78;;;;;;;10.93;61.90;100817.16;5054947;28;20029;-62
2021/10/03 01:53:22;;;;;;;11.52;6.50;;;;;;;10.91;62.38;100811.09;5054836;28;20039;-62
2021/10/03 01:55:49;;;;;;;11.70;6.50;;;;;;;10.93;62.14;100820.75;5054995;28;20024;-62
2021/10/03 01:58:17;;;;;;;12.80;6.70;;;;;;;10.95;62.29;100812.72;5055353;28;20025;-62
2021/10/03 02:00:45;;;;;;;13.52;5.88;;;;;;;10.91;62.42;100813.94;5054945;28;20048;-62
2021/10/03 02:03:11;;;;;;;13.77;6.70;;;;;;;10.85;62.51;100810.69;5054820;28;20025;-54
2021/10/03 02:05:42;;;;;;;11.05;6.28;;;;;;;10.79;62.59;100810.28;5054642;28;20021;-62
2021/10/03 02:08:09;;;;;;;13.07;6.63;;;;;;;10.76;62.71;100816.69;5055029;28;20032;-62
2021/10/03 02:10:37;;;;;;;11.13;6.10;;;;;;;10.73;62.84;100811.84;5054591;28;20021;-63
2021/10/03 02:13:04;;;;;;;12.60;6.55;;;;;;;10.71;63.21;100814.25;5054963;28;20029;-62
2021/10/03 02:15:30;;;;;;;11.32;6.10;;;;;;;10.70;63.00;100814.66;5056415;28;20100;-63
2021/10/03 02:17:55;;;;;;;11.10;6.30;;;;;;;10.71;63.10;100814.25;5058605;28;20075;-55
2021/10/03 02:20:22;;;;;;;11.00;6.32;;;;;;;10.71;62.69;100811.44;5058358;28;20028;-62
2021/10/03 02:22:48;;;;;;;8.02;5.78;;;;;;;10.73;63.10;100811.03;5058735;28;20044;-61
2021/10/03 02:25:14;;;;;;;13.07;6.82;;;;;;;10.73;62.92;100806.22;5058687;28;20025;-62
2021/10/03 02:27:40;;;;;;;11.82;6.13;;;;;;;10.73;62.62;100811.84;5058175;28;20017;-62
2021/10/03 02:30:07;;;;;;;14.10;5.82;;;;;;;10.74;62.96;100805.03;5058857;28;20070;-62
2021/10/03 02:32:32;;;;;;;11.52;6.15;;;;;;;10.72;62.40;100815.88;5070348;28;20101;-62
2021/10/03 02:34:58;;;;;;;15.38;5.97;;;;;;;10.72;63.10;100823.50;5078161;28;20498;-62
2021/10/03 02:37:24;;;;;;;7.95;6.32;;;;;;;10.69;62.81;100822.28;5078341;28;20026;-62
2021/10/03 02:39:50;;;;;;;14.30;6.53;;;;;;;10.69;63.40;100819.47;5060605;28;20029;-62
2021/10/03 02:42:15;;;;;;;14.77;6.55;;;;;;;10.67;62.96;100819.03;5078236;28;20031;-62
2021/10/03 02:44:41;;;;;;;12.43;6.43;;;;;;;10.67;63.07;100823.84;5078128;28;20082;-62
2021/10/03 02:47:11;;;;;;;10.23;6.65;;;;;;;10.64;63.06;100824.63;5078355;28;20016;-62
2021/10/03 02:49:38;;;;;;;9.90;6.10;;;;;;;10.58;63.21;100821.38;5063068;28;20056;-62
2021/10/03 02:52:04;;;;;;;15.80;6.72;;;;;;;10.56;63.44;100820.97;5058491;28;20125;-62
2021/10/03 02:54:29;;;;;;;10.63;6.97;;;;;;;10.56;63.62;100822.97;5040343;28;20323;-62
2021/10/03 02:56:54;;;;;;;12.48;6.35;;;;;;;10.52;63.74;100822.97;5057858;28;20021;-62
2021/10/03 02:59:20;;;;;;;10.68;7.00;;;;;;;10.49;63.46;100826.56;5058150;28;20049;-63
2021/10/03 03:01:45;;;;;;;10.13;6.03;;;;;;;10.49;63.84;100824.56;5057688;28;20049;-62
2021/10/03 03:04:11;;;;;;;10.73;6.57;;;;;;;10.51;63.90;100826.97;5057617;28;20021;-62
2021/10/03 03:06:36;;;;;;;11.30;6.63;;;;;;;10.54;63.76;100826.19;5057541;28;20021;-62
2021/10/03 03:09:01;;;;;;;10.63;6.22;;;;;;;10.51;63.64;100826.97;5057937;28;20025;-62
2021/10/03 03:11:27;;;;;;;13.32;7.05;;;;;;;10.48;63.84;100833.38;5057585;28;20029;-62
2021/10/03 03:13:52;;;;;;;9.88;6.03;;;;;;;10.45;64.34;100828.53;5057532;28;20667;-47
2021/10/03 03:16:17;;;;;;;12.23;6.82;;;;;;;10.45;64.34;100831.34;5057861;28;20032;-62
2021/10/03 03:18:43;;;;;;;10.90;6.32;;;;;;;10.45;63.90;100828.53;5057100;28;20074;-62
2021/10/03 03:21:09;;;;;;;12.52;6.65;;;;;;;10.46;64.33;100825.34;5057428;28;20339;-62
2021/10/03 03:23:34;;;;;;;9.65;6.63;;;;;;;10.44;64.02;100826.94;5057455;28;20025;-63
2021/10/03 03:26:00;;;;;;;12.55;6.53;;;;;;;10.44;64.10;100826.94;5057175;28;20056;-62
2021/10/03 03:28:25;;;;;;;9.38;5.97;;;;;;;10.40;64.24;100820.47;5056689;28;20025;-62
2021/10/03 03:30:50;;;;;;;13.65;7.50;;;;;;;10.37;64.08;100815.63;5057110;28;20070;-62
2021/10/03 03:33:16;;;;;;;11.43;6.15;;;;;;;10.34;64.54;100822.03;5057256;28;20468;-61
2021/10/03 03:35:43;;;;;;;13.13;7.10;;;;;;;10.29;64.34;100819.59;5057018;28;20021;-60
2021/10/03 03:38:09;;;;;;;11.82;6.97;;;;;;;10.25;64.85;100824.38;5057522;28;20074;-61
2021/10/03 03:40:35;;;;;;;11.40;6.25;;;;;;;10.20;64.70;100823.56;5057391;28;20025;-61
2021/10/03 03:43:00;;;;;;;10.05;6.38;;;;;;;10.18;64.76;100831.53;5056908;28;20032;-61
2021/10/03 03:45:26;;;;;;;12.13;6.53;;;;;;;10.15;64.76;100820.28;5057096;28;20544;-61
2021/10/03 03:47:51;;;;;;;10.02;6.50;;;;;;;10.10;64.75;100815.81;5056668;28;20016;-62
2021/10/03 03:50:17;;;;;;;12.48;6.55;;;;;;;10.05;65.32;100823.78;5057030;28;20127;-61
2021/10/03 03:52:43;;;;;;;10.85;6.55;;;;;;;9.99;65.51;100822.53;5056645;28;20048;-61
2021/10/03 03:55:10;;;;;;;10.85;6.63;;;;;;;9.90;65.51;100806.03;5057038;28;20147;-61
2021/10/03 03:57:36;;;;;;;17.98;7.47;;;;;;;9.84;65.60;100819.59;5057036;28;20343;-61
2021/10/03 04:00:04;;;;;;;14.05;6.80;;;;;;;9.83;65.89;100814.38;5056580;28;20025;-61
2021/10/03 04:02:31;;;;;;;14.85;6.35;;;;;;;9.80;66.24;100813.13;5056696;28;20407;-61
2021/10/03 04:04:57;;;;;;;14.13;8.23;;;;;;;9.78;65.97;100809.91;5056769;28;20029;-61
2021/10/03 04:07:23;;;;;;;17.50;7.18;;;;;;;9.81;66.37;100809.13;5056581;28;20071;-61
2021/10/03 04:09:49;;;;;;;18.63;7.78;;;;;;;9.81;66.29;100816.75;5056599;28;20025;-61
2021/10/03 04:12:14;;;;;;;14.77;7.18;;;;;;;9.77;66.17;100805.50;5056746;28;20017;-62
2021/10/03 04:14:40;;;;;;;18.25;6.50;;;;;;;9.76;66.27;100815.13;5056055;28;20087;-61
2021/10/03 04:17:06;;;;;;;15.10;6.63;;;;;;;9.76;66.19;100812.31;5042340;28;20048;-61
2021/10/03 04:19:31;;;;;;;12.60;6.47;;;;;;;9.82;66.04;100821.16;5056592;28;20025;-61
2021/10/03 04:21:56;;;;;;;14.15;6.85;;;;;;;9.81;65.98;100813.94;5056209;28;20025;-59
2021/10/03 04:24:21;;;;;;;13.50;6.72;;;;;;;9.80;66.67;100820.75;5056181;28;20025;-62
2021/10/03 04:26:47;;;;;;;14.75;6.15;;;;;;;9.77;66.49;100818.72;5038326;28;20436;-62
2021/10/03 04:29:12;;;;;;;14.48;6.88;;;;;;;9.74;66.43;100814.69;5056532;28;20032;-61
2021/10/03 04:31:38;;;;;;;12.32;7.60;;;;;;;9.75;66.38;100821.13;5038169;28;20025;-60
2021/10/03 04:34:04;;;;;;;15.52;7.90;;;;;;;9.71;66.40;100817.47;5056103;28;20315;-61
2021/10/03 04:36:29;;;;;;;13.60;7.25;;;;;;;9.69;66.84;100805.81;5056303;28;20013;-61
2021/10/03 04:38:55;;;;;;;9.25;6.45;;;;;;;9.69;66.81;100806.63;5065983;28;20399;-60
2021/10/03 04:41:20;;;;;;;15.43;7.10;;;;;;;9.69;66.56;100814.25;5056046;28;20039;-61
2021/10/03 04:43:45;;;;;;;11.30;7.53;;;;;;;9.70;66.53;100810.25;5055967;28;20028;-61
2021/10/03 04:46:12;;;;;;;16.70;7.80;;;;;;;9.74;67.07;100811.09;5038057;28;20035;-62
2021/10/03 04:48:38;;;;;;;12.82;7.75;;;;;;;9.69;66.40;100815.06;5055847;28;20055;-61
2021/10/03 04:51:03;;;;;;;11.80;6.93;;;;;;;9.70;66.86;100815.84;5055730;28;20108;-61
2021/10/03 04:53:29;;;;;;;12.32;6.07;;;;;;;9.73;66.14;100809.47;5055976;28;20021;-61
2021/10/03 04:55:54;;;;;;;12.18;6.88;;;;;;;9.77;66.94;100810.31;5055612;28;20415;-61
2021/10/03 04:58:20;;;;;;;14.02;7.07;;;;;;;9.76;66.58;100806.69;5055657;28;20035;-61
2021/10/03 05:00:45;;;;;;;11.02;7.38;;;;;;;9.78;67.00;100811.91;5055456;28;20025;-61
2021/10/03 05:03:10;;;;;;;12.05;7.22;;;;;;;9.82;66.56;100815.56;5055474;28;20366;-61
2021/10/03 05:05:36;;;;;;;14.45;7.13;;;;;;;9.82;66.86;100821.97;5055770;28;20048;-61
2021/10/03 05:08:03;;;;;;;19.65;7.68;;;;;;;9.82;66.27;100826.78;5037978;28;20083;-60
2021/10/03 05:10:29;;;;;;;16.15;7.63;;;;;;;9.77;66.59;100824.34;5055411;28;20029;-62
2021/10/03 05:12:54;;;;;;;13.25;7.07;;;;;;;9.79;66.46;100824.75;5055584;28;20020;-62
2021/10/03 05:15:19;;;;;;;12.20;7.18;;;;;;;9.81;66.48;100830.78;5055271;28;20071;-62
2021/10/03 05:17:45;;;;;;;12.75;6.90;;;;;;;9.84;66.66;100832.81;5055301;28;20021;-61
2021/10/03 05:20:11;;;;;;;11.82;7.05;;;;;;;9.88;66.45;100828.06;5055349;28;20017;-63
2021/10/03 05:22:36;;;;;;;17.73;7.60;;;;;;;9.93;66.63;100830.53;5037842;28;20057;-61
2021/10/03 05:25:02;;;;;;;13.60;7.13;;;;;;;9.98;66.12;100830.16;5054864;28;20025;-61
2021/10/03 05:27:28;;;;;;;12.90;7.40;;;;;;;9.97;66.39;100828.53;5054979;28;20020;-61
2021/10/03 05:29:53;;;;;;;13.82;7.95;;;;;;;10.04;65.77;100833.41;5051536;28;20021;-62
2021/10/03 05:32:19;;;;;;;15.45;6.82;;;;;;;10.03;66.29;100835.41;5055063;28;20426;-61
2021/10/03 05:34:44;;;;;;;15.15;8.00;;;;;;;10.08;66.11;100839.84;5055009;28;20024;-62
2021/10/03 05:37:09;;;;;;;11.82;7.53;;;;;;;10.05;66.17;100837.81;5055442;28;20411;-61
2021/10/03 05:39:35;;;;;;;12.35;7.40;;;;;;;10.06;66.02;100843.06;5065258;28;20029;-62
2021/10/03 05:42:00;;;;;;;10.93;7.07;;;;;;;10.07;66.31;100836.25;5054156;28;20128;-62
2021/10/03 05:44:26;;;;;;;20.38;8.18;;;;;;;10.11;65.76;100831.44;5057105;28;20040;-62
2021/10/03 05:46:51;;;;;;;14.05;7.50;;;;;;;10.21;66.02;100836.41;5057540;28;20025;-62
2021/10/03 05:49:16;;;;;;;12.90;7.88;;;;;;;10.25;65.96;100835.63;5029728;28;20084;-61
2021/10/03 05:51:42;;;;;;;16.48;9.52;;;;;;;10.30;65.59;100843.69;5059760;28;20044;-62
2021/10/03 05:54:08;;;;;;;19.63;7.65;;;;;;;10.36;65.80;100842.91;5061867;28;20079;-61
2021/10/03 05:56:35;;;;;;;14.40;7.80;;;;;;;10.48;65.47;100839.00;5060292;28;20020;-62
2021/10/03 05:59:01;;;;;;;14.60;7.43;;;;;;;10.59;65.14;100839.06;5058481;28;20032;-61
2021/10/03 06:01:28;;;;;;;18.88;9.73;;;;;;;10.64;65.38;100831.06;5061197;28;20032;-62
2021/10/03 06:03:54;;;;;;;13.40;8.18;;;;;;;10.82;64.37;100839.59;5061454;28;20021;-62
2021/10/03 06:06:20;;;;;;;16.33;8.13;;;;;;;10.92;64.31;100847.28;5059989;28;20021;-62
2021/10/03 06:08:45;;;;;;;14.05;7.38;;;;;;;10.99;64.01;100840.91;5061341;28;20024;-62
2021/10/03 06:11:10;;;;;;;15.95;7.95;;;;;;;11.08;64.05;100844.94;5058894;28;20029;-62
2021/10/03 06:13:36;;;;;;;21.67;8.27;;;;;;;11.22;63.43;100838.56;5060633;28;20396;-62
2021/10/03 06:16:01;;;;;;;39.58;9.02;;;;;;;11.32;63.46;100846.25;5061575;28;20075;-61
2021/10/03 06:18:27;;;;;;;13.05;7.53;;;;;;;11.46;63.12;100843.47;5060812;28;20419;-61
2021/10/03 06:20:52;;;;;;;16.08;8.73;;;;;;;11.56;62.78;100839.09;5061137;28;20430;-61
2021/10/03 06:23:18;;;;;;;15.65;7.88;;;;;;;11.71;62.52;100837.91;5059081;28;20025;-61
2021/10/03 06:25:43;;;;;;;13.27;7.60;;;;;;;11.83;61.73;100844.41;5043350;28;20063;-60
2021/10/03 06:28:09;;;;;;;15.60;7.72;;;;;;;11.96;61.86;100843.59;5058648;28;20025;-61
2021/10/03 06:30:35;;;;;;;18.48;7.60;;;;;;;12.20;61.19;100841.19;5058423;28;20037;-61
2021/10/03 06:33:02;;;;;;;13.55;7.10;;;;;;;12.31;60.51;100844.81;5058422;28;20324;-62
2021/10/03 06:35:28;;;;;;;15.27;7.50;;;;;;;12.41;60.78;100846.03;5058911;28;20025;-62
2021/10/03 06:37:54;;;;;;;18.58;8.07;;;;;;;12.54;60.56;100850.03;5057907;28;20046;-62
2021/10/03 06:40:21;;;;;;;13.75;7.15;;;;;;;12.67;59.67;100852.03;5058402;28;20025;-61
2021/10/03 06:42:46;;;;;;;13.77;8.48;;;;;;;12.79;58.96;100839.50;5058099;28;20320;-62
2021/10/03 06:45:12;;;;;;;19.30;7.80;;;;;;;12.88;59.38;100850.38;5058109;28;20029;-61
2021/10/03 06:47:37;;;;;;;10.82;7.45;;;;;;;13.04;58.83;100856.34;5058123;28;20033;-62
2021/10/03 06:50:04;;;;;;;15.25;7.30;;;;;;;13.12;58.41;100852.28;5055386;28;20440;-62
2021/10/03 06:52:30;;;;;;;18.27;7.35;;;;;;;13.26;58.35;100852.25;5048770;28;20060;-61
2021/10/03 06:54:56;;;;;;;9.15;6.72;;;;;;;13.39;58.05;100852.59;5039284;28;20224;-46
2021/10/03 06:57:21;;;;;;;11.68;6.35;;;;;;;13.54;57.70;100859.00;5042902;28;20022;-61
2021/10/03 06:59:46;;;;;;;10.93;6.60;;;;;;;13.71;57.83;100862.94;5055050;28;20032;-61
2021/10/03 07:02:19;;;;;;;16.70;6.45;;;;;;;13.86;57.21;100859.59;5037939;28;20025;-62
2021/10/03 07:04:45;;;;;;;13.68;5.88;;;;;;;13.94;56.72;100857.50;5056638;28;20312;-61
2021/10/03 07:07:10;;;;;;;16.08;6.75;;;;;;;14.04;56.71;100841.72;5063907;28;20033;-61
2021/10/03 07:09:36;;;;;;;12.80;6.68;;;;;;;14.20;56.22;100859.72;5054536;28;20036;-61
2021/10/03 07:12:01;;;;;;;11.20;5.95;;;;;;;14.35;55.52;100853.97;5042144;28;20025;-61
2021/10/03 07:14:26;;;;;;;32.08;7.18;;;;;;;14.47;54.90;100851.44;5058326;28;20029;-61
2021/10/03 07:16:52;;;;;;;10.88;5.88;;;;;;;14.46;54.94;100849.84;5059368;28;20025;-61
2021/10/03 07:19:17;;;;;;;13.18;6.43;;;;;;;14.50;55.50;100852.63;5056691;28;20050;-62
2021/10/03 07:21:43;;;;;;;18.17;6.75;;;;;;;14.61;55.73;100841.22;5046701;28;20023;-62
2021/10/03 07:24:08;;;;;;;11.52;6.50;;;;;;;14.75;56.53;100849.56;5064475;28;20029;-61
2021/10/03 07:26:34;;;;;;;14.02;6.43;;;;;;;14.88;55.58;100842.16;5056591;28;20032;-54
2021/10/03 07:28:59;;;;;;;11.50;5.70;;;;;;;15.03;54.23;100854.91;5049962;28;20394;-60
2021/10/03 07:31:24;;;;;;;12.38;6.30;;;;;;;15.15;53.70;100848.72;5051284;28;20029;-62
2021/10/03 07:33:50;;;;;;;18.60;6.90;;;;;;;15.14;54.11;100838.59;5056800;28;20029;-60
2021/10/03 07:36:19;;;;;;;13.68;6.47;;;;;;;15.23;54.35;100845.78;5057464;28;20016;-61
2021/10/03 07:38:44;;;;;;;12.20;5.70;;;;;;;15.35;53.65;100856.56;5055636;28;20021;-61
2021/10/03 07:41:09;;;;;;;16.80;6.72;;;;;;;15.41;52.58;100857.69;5055532;28;20031;-61
2021/10/03 07:43:35;;;;;;;9.80;5.15;;;;;;;15.55;54.42;100856.69;5057082;28;20317;-60
2021/10/03 07:46:00;;;;;;;12.35;6.43;;;;;;;15.69;52.67;100868.66;5057058;28;20032;-60
2021/10/03 07:48:25;;;;;;;13.07;5.70;;;;;;;15.75;52.21;100869.78;5056919;28;20053;-61
2021/10/03 07:50:51;;;;;;;15.88;5.65;;;;;;;15.83;52.13;100876.16;5056514;28;20028;-62
2021/10/03 07:53:16;;;;;;;15.07;5.22;;;;;;;15.87;51.96;100868.41;5056876;28;20104;-60
2021/10/03 07:55:43;;;;;;;14.27;5.85;;;;;;;15.91;51.55;100859.88;5056518;28;20082;-58
2021/10/03 07:58:09;;;;;;;17.00;5.22;;;;;;;15.98;52.17;100854.88;5057026;28;20021;-61
2021/10/03 08:00:35;;;;;;;22.55;5.95;;;;;;;16.14;51.23;100859.88;5056913;28;20367;-62
2021/10/03 08:03:03;;;;;;;14.43;6.40;;;;;;;16.22;50.95;100855.72;5056654;28;20029;-61
2021/10/03 08:05:28;;;;;;;16.27;6.05;;;;;;;16.22;51.27;100861.38;5056824;28;20108;-61
2021/10/03 08:07:54;;;;;;;14.75;5.85;;;;;;;16.22;51.15;100867.06;5056401;28;20108;-62
2021/10/03 08:10:20;;;;;;;10.98;5.53;;;;;;;16.24;51.72;100858.91;5056429;28;20021;-61
2021/10/03 08:12:47;;;;;;;13.73;6.40;;;;;;;16.35;50.99;100858.72;5055180;28;20029;-61
2021/10/03 08:15:14;;;;;;;14.50;4.90;;;;;;;16.33;51.13;100859.16;5058237;28;20056;-62
2021/10/03 08:17:39;;;;;;;9.85;5.10;;;;;;;16.38;51.72;100863.53;5054099;28;20024;-59
2021/10/03 08:20:06;;;;;;;9.07;5.80;;;;;;;16.44;51.30;100861.03;5057779;28;20024;-60
2021/10/03 08:22:31;;;;;;;12.75;5.63;;;;;;;16.48;51.04;100861.75;5055767;28;20021;-60
2021/10/03 08:24:57;;;;;;;10.82;5.57;;;;;;;16.47;51.76;100857.31;5057765;28;20404;-61
2021/10/03 08:27:22;;;;;;;11.95;5.35;;;;;;;16.57;51.48;100867.69;5055663;28;20025;-60
2021/10/03 08:29:47;;;;;;;16.58;6.15;;;;;;;16.65;50.98;100869.94;5060178;28;20174;-60
2021/10/03 08:32:13;;;;;;;11.10;6.15;;;;;;;16.69;50.74;100865.03;5061469;28;20025;-60
2021/10/03 08:34:38;;;;;;;12.07;5.95;;;;;;;16.70;50.63;100860.16;5065550;28;20430;-60
2021/10/03 08:37:03;;;;;;;14.98;5.40;;;;;;;16.68;51.17;100860.59;5066068;28;20107;-48
2021/10/03 08:39:29;;;;;;;10.25;5.40;;;;;;;16.71;51.51;100855.28;5063267;28;20052;-60
2021/10/03 08:41:54;;;;;;;13.40;5.43;;;;;;;16.72;50.93;100860.56;5061562;28;20086;-59
2021/10/03 08:44:19;;;;;;;11.13;5.60;;;;;;;16.77;50.86;100862.88;5062172;28;20158;-60
2021/10/03 08:46:48;;;;;;;15.05;6.32;;;;;;;16.88;50.45;100863.47;5059399;28;20028;-59
2021/10/03 08:49:16;;;;;;;11.48;6.13;;;;;;;16.96;51.14;100858.44;5064201;28;20041;-57
2021/10/03 08:51:45;;;;;;;12.55;5.88;;;;;;;17.07;50.86;100872.47;5055470;28;20104;-54
2021/10/03 08:54:11;;;;;;;12.10;5.15;;;;;;;17.11;51.08;100870.34;5055684;28;20027;-59
2021/10/03 08:56:36;;;;;;;13.90;5.00;;;;;;;17.21;51.13;100872.16;5055560;28;20017;-60
2021/10/03 08:59:02;;;;;;;11.00;5.53;;;;;;;17.30;51.13;100867.50;5055144;28;20036;-56
2021/10/03 09:01:55;;;;;;;11.65;5.00;;;;;;;17.40;49.81;100862.84;5055102;28;20167;-58
2021/10/03 09:04:29;;;;;;;11.18;5.50;;;;;;;17.37;49.52;100860.88;5053562;28;20399;-61
2021/10/03 09:07:09;;;;;;;9.15;6.25;;;;;;;17.41;50.19;100850.22;5044338;28;20121;-60
2021/10/03 09:09:47;;;;;;;16.10;5.85;;;;;;;17.46;49.29;100852.53;5055125;28;20028;-61
2021/10/03 09:12:36;;;;;;;22.83;6.32;;;;;;;17.52;49.89;100847.13;5064710;28;20451;-60
2021/10/03 09:15:05;;;;;;;8.18;5.25;;;;;;;17.60;50.07;100848.59;5055025;28;20347;-61
2021/10/03 09:17:31;;;;;;;13.27;5.30;;;;;;;17.62;50.23;100848.97;5055324;28;20037;-59
2021/10/03 09:20:10;;;;;;;11.05;5.07;;;;;;;17.68;50.10;100846.44;5054902;28;20361;-60
2021/10/03 09:22:53;;;;;;;13.25;5.43;;;;;;;17.77;49.95;100861.63;5058364;28;20052;-60
2021/10/03 09:25:43;;;;;;;13.52;5.63;;;;;;;17.82;49.67;100854.66;5054687;28;20029;-60
2021/10/03 09:28:14;;;;;;;14.18;5.68;;;;;;;17.83;50.47;100847.72;5043925;28;20020;-59
2021/10/03 09:31:07;;;;;;;11.93;5.03;;;;;;;17.83;49.92;100854.19;5055263;28;20032;-60
2021/10/03 09:33:45;;;;;;;14.18;5.47;;;;;;;17.92;49.26;100862.91;5046670;28;20027;-61
2021/10/03 09:36:13;;;;;;;11.20;5.82;;;;;;;17.94;49.48;100836.06;5053573;28;20052;-57
2021/10/03 09:38:45;;;;;;;19.58;6.13;;;;;;;18.02;50.28;100828.97;5054504;28;20025;-56
2021/10/03 09:41:10;;;;;;;;;;;;;;;18.13;48.88;100841.69;5054839;28;20025;-59
2021/10/03 09:43:43;;;;;;;15.80;5.63;;;;;;;18.12;49.49;100840.09;5046158;28;20342;-56
2021/10/03 09:46:10;;;;;;;9.30;5.30;;;;;;;18.20;49.31;100832.97;5044715;28;20372;-61
2021/10/03 09:48:49;;;;;;;11.85;5.78;;;;;;;18.25;49.14;100833.69;5060097;28;20072;-61
2021/10/03 09:51:16;;;;;;;9.43;5.05;;;;;;;18.28;49.50;100835.63;5056142;28;20104;-60
2021/10/03 09:53:44;;;;;;;10.88;5.13;;;;;;;18.39;49.68;100830.50;5065227;28;20031;-60
2021/10/03 09:56:09;;;;;;;13.30;5.15;;;;;;;18.40;49.22;100826.41;5068442;28;20411;-60
2021/10/03 09:58:37;;;;;;;18.25;5.18;;;;;;;18.47;49.72;100823.34;5062536;28;20031;-60
2021/10/03 10:01:03;;;;;;;13.57;4.78;;;;;;;18.50;49.51;100825.31;5074400;28;20099;-59
2021/10/03 10:03:37;;;;;;;10.25;5.22;;;;;;;18.61;49.50;100822.97;5047089;28;20437;-60
2021/10/03 10:06:03;;;;;;;10.38;5.40;;;;;;;18.68;48.98;100827.72;5061384;28;20033;-60
2021/10/03 10:08:29;;;;;;;8.77;5.40;;;;;;;18.72;49.27;100811.34;5068300;28;20075;-60
2021/10/03 10:11:03;;;;;;;10.00;5.22;;;;;;;18.79;49.39;100823.31;5066027;28;20060;-60
2021/10/03 10:13:30;;;;;;;15.73;5.55;;;;;;;18.87;48.69;100806.81;5060173;28;20031;-59
2021/10/03 10:16:27;;;;;;;12.68;5.35;;;;;;;18.97;47.82;100813.47;5059139;28;20092;-60
2021/10/03 10:19:45;;;;;;;11.40;5.45;;;;;;;19.00;47.94;100809.72;5050673;28;20032;-60
2021/10/03 10:22:18;;;;;;;13.23;5.80;;;;;;;19.02;47.70;100810.06;5021805;28;20044;-60
2021/10/03 10:24:43;;;;;;;11.02;6.55;;;;;;;19.07;48.90;100803.81;5058504;28;20408;-60
2021/10/03 10:27:29;;;;;;;15.88;5.43;;;;;;;19.11;48.10;100796.75;5054460;28;20031;-60
2021/10/03 10:30:04;;;;;;;10.88;5.70;;;;;;;19.21;48.09;100794.88;5037381;28;20040;-60
2021/10/03 10:32:32;;;;;;;8.50;5.30;;;;;;;19.26;47.61;100799.19;5054649;28;20029;-60
2021/10/03 10:35:06;;;;;;;13.20;5.40;;;;;;;19.27;47.76;100793.03;5050733;28;20029;-60
2021/10/03 10:37:50;;;;;;;10.77;5.82;;;;;;;19.38;47.64;100790.66;5047676;28;20029;-59
2021/10/03 10:40:32;;;;;;;9.20;5.38;;;;;;;19.46;47.60;100779.84;5054336;28;20096;-53
2021/10/03 10:43:03;;;;;;;20.80;5.72;;;;;;;19.54;48.43;100791.84;5049082;28;20021;-60
2021/10/03 10:45:29;;;;;;;11.15;4.97;;;;;;;19.62;46.93;100782.63;5044550;28;20025;-57
2021/10/03 10:48:10;;;;;;;9.00;5.03;;;;;;;19.59;46.91;100782.72;5048983;28;20029;-60
2021/10/03 10:51:00;;;;;;;13.43;5.45;;;;;;;19.64;47.07;100773.59;5046174;28;20420;-61
2021/10/03 10:53:30;;;;;;;11.93;4.60;;;;;;;19.75;47.00;100769.16;5047118;28;20029;-60
2021/10/03 10:56:17;;;;;;;13.70;5.93;;;;;;;19.78;47.29;100775.22;5043355;28;20025;-61
2021/10/03 10:58:48;;;;;;;9.60;4.85;;;;;;;19.82;48.03;100765.28;5045499;28;20028;-53
2021/10/03 11:01:15;;;;;;;21.60;6.00;;;;;;;19.85;47.53;100770.06;5056719;28;20692;-46
2021/10/03 11:03:41;;;;;;;9.80;4.75;;;;;;;19.93;46.91;100764.91;5066329;28;20035;-60
2021/10/03 11:06:06;;;;;;;14.40;5.90;;;;;;;20.04;46.76;100757.59;5050397;28;20029;-59
2021/10/03 11:08:32;;;;;;;8.48;5.40;;;;;;;20.09;46.47;100764.00;5046995;28;20320;-59
2021/10/03 11:10:57;;;;;;;9.70;4.97;;;;;;;20.12;46.64;100757.34;5055433;28;20032;-59
2021/10/03 11:13:41;;;;;;;11.68;5.78;;;;;;;20.23;46.75;100757.78;5035012;28;20024;-58
2021/10/03 11:16:48;;;;;;;12.02;5.30;;;;;;;20.24;46.74;100748.75;5058534;28;20053;-60
2021/10/03 11:19:36;;;;;;;9.98;5.20;;;;;;;20.28;46.73;100751.50;5060842;28;20082;-60
2021/10/03 11:22:06;;;;;;;9.32;5.28;;;;;;;20.31;46.23;100747.72;5061173;28;20094;-61